Time;durP1;ratioP1;P1;durP2;ratioP2;P2;SDS_P1;SDS_P2;PMS_P1;PMS_P2;Temp;Humidity;BMP_temperature;BMP_pressure;BME280_temperature;BME280_humidity;BME280_pressure;Samples;Min_cycle;Max_cycle;Signal;HPM_P1;HPM_P2
2022/11/18 00:01:47;;;;;;;9.30;5.75;;;;;;;-2.33;100.00;98489.91;1713185;82;21110;-71
2022/11/18 00:04:14;;;;;;;7.30;5.08;;;;;;;-2.38;100.00;98498.58;1715852;82;21106;-71
2022/11/18 00:06:41;;;;;;;9.95;5.75;;;;;;;-2.37;100.00;98490.86;1721820;82;21043;-71
2022/11/18 00:09:08;;;;;;;8.00;5.35;;;;;;;-2.37;100.00;98491.41;1729584;82;21031;-70
2022/11/18 00:14:23;;;;;;;7.92;5.80;;;;;;;-2.41;100.00;98492.36;1722745;82;21043;-70
2022/11/18 00:55:56;;;;;;;17.37;10.53;;;;;;;-3.86;100.00;98489.75;1791764;78;22831;-68
2022/11/18 00:58:23;;;;;;;10.40;6.62;;;;;;;-3.74;100.00;98492.08;1782655;80;21065;-68
2022/11/18 01:00:51;;;;;;;8.83;6.10;;;;;;;-3.51;100.00;98493.70;1767325;80;21033;-68
2022/11/18 01:03:18;;;;;;;9.55;6.33;;;;;;;-3.36;100.00;98503.25;1785046;80;21028;-68
2022/11/18 01:05:45;;;;;;;9.88;5.58;;;;;;;-3.26;100.00;98492.98;1764088;80;20969;-68
2022/11/18 01:08:12;;;;;;;8.00;5.20;;;;;;;-3.13;100.00;98497.70;1767078;80;21041;-68
2022/11/18 01:10:39;;;;;;;9.20;6.22;;;;;;;-3.03;100.00;98498.05;1775439;80;21007;-68
2022/11/18 01:13:18;;;;;;;9.00;5.90;;;;;;;-2.95;100.00;98498.82;1785449;80;21065;-68
2022/11/18 01:15:55;;;;;;;9.95;5.60;;;;;;;-2.88;100.00;98499.08;1783160;80;20983;-67
2022/11/18 01:18:26;;;;;;;8.43;5.20;;;;;;;-2.83;100.00;98492.58;1776470;80;21110;-68
2022/11/18 01:20:53;;;;;;;9.35;5.50;;;;;;;-2.80;100.00;98500.13;1779798;80;21031;-68
2022/11/18 01:23:20;;;;;;;7.90;4.95;;;;;;;-2.77;100.00;98496.23;1772372;80;21790;-68
2022/11/18 01:25:48;;;;;;;8.68;5.53;;;;;;;-2.73;100.00;98502.77;1787309;80;21579;-68
2022/11/18 01:28:16;;;;;;;8.48;5.53;;;;;;;-2.74;100.00;98500.62;1781310;80;21041;-68
2022/11/18 01:30:42;;;;;;;9.98;6.00;;;;;;;-2.68;100.00;98494.92;1749949;80;21077;-68
2022/11/18 01:33:09;;;;;;;9.78;5.50;;;;;;;-2.72;100.00;98498.54;1761303;80;21023;-68
2022/11/18 01:35:36;;;;;;;8.75;5.45;;;;;;;-2.72;100.00;98494.55;1769569;80;21015;-68
2022/11/18 01:38:04;;;;;;;11.43;5.92;;;;;;;-2.69;100.00;98496.77;1768517;80;21020;-68
2022/11/18 01:40:30;;;;;;;8.80;5.85;;;;;;;-2.67;100.00;98496.05;1772646;80;21025;-68
2022/11/18 01:42:57;;;;;;;9.65;5.55;;;;;;;-2.65;100.00;98497.97;1782254;80;21638;-68
2022/11/18 01:45:33;;;;;;;8.30;6.03;;;;;;;-2.60;100.00;98496.00;1767326;80;21497;-68
2022/11/18 01:48:08;;;;;;;8.35;5.10;;;;;;;-2.60;100.00;98498.15;1775771;80;21054;-68
2022/11/18 01:50:37;;;;;;;8.00;5.47;;;;;;;-2.56;100.00;98500.68;1783717;80;21057;-68
2022/11/18 01:53:10;;;;;;;10.53;5.62;;;;;;;-2.60;100.00;98503.48;1765946;80;21057;-68
2022/11/18 01:55:37;;;;;;;8.23;5.45;;;;;;;-2.57;100.00;98509.70;1789486;80;20959;-68
2022/11/18 01:58:14;;;;;;;9.50;6.10;;;;;;;-2.59;100.00;98503.78;1775374;79;21628;-68
2022/11/18 02:00:40;;;;;;;9.80;5.83;;;;;;;-2.63;100.00;98502.58;1778559;80;21691;-68
2022/11/18 02:03:08;;;;;;;10.13;6.35;;;;;;;-2.70;100.00;98506.33;1772495;80;21038;-68
2022/11/18 02:05:36;;;;;;;9.95;6.33;;;;;;;-2.74;100.00;98509.12;1767361;80;21022;-68
2022/11/18 02:08:02;;;;;;;9.28;5.78;;;;;;;-2.73;100.00;98503.56;1773488;80;21034;-68
2022/11/18 02:10:29;;;;;;;8.58;5.70;;;;;;;-2.69;100.00;98514.59;1765385;80;21070;-68
2022/11/18 02:12:57;;;;;;;9.18;5.62;;;;;;;-2.73;100.00;98508.88;1732669;81;21119;-68
2022/11/18 02:15:30;;;;;;;9.05;6.12;;;;;;;-2.75;100.00;98507.48;1759430;80;21010;-68
2022/11/18 02:18:23;;;;;;;10.10;6.10;;;;;;;-2.74;100.00;98508.61;1771567;80;21587;-68
2022/11/18 02:20:50;;;;;;;8.30;5.70;;;;;;;-2.69;100.00;98516.75;1788596;80;21063;-68
2022/11/18 02:23:23;;;;;;;;;;;;;;;-2.69;100.00;98510.59;1749905;81;21497;-68
2022/11/18 02:26:16;;;;;;;10.38;6.12;;;;;;;-2.69;100.00;98518.08;1794979;80;20155;-68
2022/11/18 02:29:17;;;;;;;8.20;5.67;;;;;;;-2.73;100.00;98520.88;1758074;80;21041;-68
2022/11/18 02:31:58;;;;;;;10.75;6.35;;;;;;;-2.72;100.00;98522.52;1757644;80;21610;-68
2022/11/18 02:34:45;;;;;;;8.33;5.85;;;;;;;-2.76;100.00;98526.64;1770171;80;21022;-68
2022/11/18 02:37:22;;;;;;;9.45;6.45;;;;;;;-2.78;100.00;98519.39;1735826;81;21038;-68
2022/11/18 02:39:57;;;;;;;9.08;6.40;;;;;;;-2.83;100.00;98517.88;1771017;80;21018;-68
2022/11/18 02:42:24;;;;;;;11.00;6.75;;;;;;;-2.82;100.00;98519.52;1781215;80;21654;-68
2022/11/18 02:44:54;;;;;;;9.45;5.65;;;;;;;-2.82;100.00;98525.35;1769668;80;21052;-68
2022/11/18 02:47:20;;;;;;;9.23;6.03;;;;;;;-2.83;100.00;98521.05;1781645;80;21078;-68
2022/11/18 02:49:50;;;;;;;8.20;5.92;;;;;;;-2.83;100.00;98523.20;1778716;80;21018;-68
2022/11/18 02:52:17;;;;;;;10.00;6.12;;;;;;;-2.81;100.00;98521.16;1721487;80;21086;-68
2022/11/18 02:54:44;;;;;;;;;;;;;;;-2.79;100.00;98514.27;1777432;80;21049;-68
2022/11/18 02:57:10;;;;;;;8.35;6.60;;;;;;;-2.81;100.00;98515.83;1764384;80;20418;-68
2022/11/18 02:59:37;;;;;;;11.12;6.40;;;;;;;-2.87;100.00;98514.55;1748783;80;21827;-68
2022/11/18 03:02:03;;;;;;;9.75;6.05;;;;;;;-2.84;100.00;98512.78;1758235;80;21037;-68
2022/11/18 03:04:30;;;;;;;;;;;;;;;-2.78;100.00;98521.23;1768183;80;20986;-68
2022/11/18 03:07:14;;;;;;;11.97;6.40;;;;;;;-2.81;100.00;98517.16;1777897;80;20135;-68
2022/11/18 03:09:43;;;;;;;10.23;6.78;;;;;;;-2.87;100.00;98518.55;1759576;80;21118;-68
2022/11/18 03:12:34;;;;;;;10.78;6.62;;;;;;;-2.90;100.00;98519.77;1782410;80;21008;-68
2022/11/18 03:15:08;;;;;;;10.80;6.78;;;;;;;-2.87;100.00;98524.66;1769040;80;21549;-68
2022/11/18 03:18:01;;;;;;;10.68;6.55;;;;;;;-2.83;100.00;98521.87;1738421;80;21031;-68
2022/11/18 03:20:38;;;;;;;12.05;6.83;;;;;;;-2.80;100.00;98524.64;1764903;80;21117;-68
2022/11/18 03:23:28;;;;;;;11.28;7.10;;;;;;;-2.76;100.00;98526.64;1771157;80;21113;-68
2022/11/18 03:26:04;;;;;;;10.58;7.42;;;;;;;-2.75;100.00;98537.59;1737557;80;21544;-68
2022/11/18 03:28:39;;;;;;;10.60;6.55;;;;;;;-2.72;100.00;98534.50;1775624;80;21085;-68
2022/11/18 03:31:36;;;;;;;11.03;7.00;;;;;;;-2.71;100.00;98536.65;1755270;81;21092;-68
2022/11/18 03:34:30;;;;;;;9.50;6.83;;;;;;;-2.76;100.00;98537.29;1765637;80;21105;-68
2022/11/18 03:36:59;;;;;;;9.90;6.80;;;;;;;-2.76;100.00;98537.29;1770761;80;21400;-68
2022/11/18 03:39:27;;;;;;;11.45;7.40;;;;;;;-2.75;100.00;98548.77;1781626;80;20990;-68
2022/11/18 03:41:59;;;;;;;11.80;6.87;;;;;;;-2.70;100.00;98543.63;1771888;80;21074;-68
2022/11/18 03:44:30;;;;;;;9.15;6.62;;;;;;;-2.71;100.00;98546.80;1773143;80;21565;-68
2022/11/18 03:47:00;;;;;;;12.23;7.45;;;;;;;-2.65;100.00;98546.44;1762189;80;21006;-68
2022/11/18 03:49:35;;;;;;;9.50;6.83;;;;;;;-2.58;100.00;98548.02;1769192;80;21002;-68
2022/11/18 03:52:09;;;;;;;11.40;7.12;;;;;;;-2.52;100.00;98553.02;1786023;80;21494;-68
2022/11/18 03:54:35;;;;;;;11.00;7.35;;;;;;;-2.52;100.00;98548.52;1777664;80;21045;-68
2022/11/18 03:57:12;;;;;;;;;;;;;;;-2.54;100.00;98545.23;1772066;80;20963;-68
2022/11/18 03:59:53;;;;;;;12.73;7.20;;;;;;;-2.54;100.00;98549.73;1772152;80;20096;-68
2022/11/18 04:02:21;;;;;;;11.38;7.62;;;;;;;-2.61;100.00;98540.98;1745283;81;21045;-68
2022/11/18 04:04:49;;;;;;;13.45;8.98;;;;;;;-2.58;100.00;98545.36;1760345;80;21014;-69
2022/11/18 04:07:32;;;;;;;15.28;7.75;;;;;;;-2.56;100.00;98539.83;1762539;80;21061;-68
2022/11/18 04:10:07;;;;;;;12.47;8.58;;;;;;;-2.53;100.00;98541.54;1778720;80;20970;-68
2022/11/18 04:12:41;;;;;;;11.68;7.87;;;;;;;-2.58;100.00;98538.70;1771159;80;21655;-68
2022/11/18 04:15:08;;;;;;;13.30;8.40;;;;;;;-2.56;100.00;98547.31;1752948;80;21440;-68
2022/11/18 04:17:36;;;;;;;14.33;8.38;;;;;;;-2.58;100.00;98544.03;1759695;80;21160;-68
2022/11/18 04:20:03;;;;;;;13.30;8.15;;;;;;;-2.55;100.00;98538.80;1772152;80;21043;-68
2022/11/18 04:22:31;;;;;;;11.38;8.05;;;;;;;-2.55;100.00;98548.13;1777171;80;21054;-68
2022/11/18 04:24:58;;;;;;;12.58;7.97;;;;;;;-2.52;100.00;98545.84;1763481;80;21097;-68
2022/11/18 04:27:25;;;;;;;;;;;;;;;-2.47;100.00;98552.34;1780399;80;22330;-68
2022/11/18 04:29:51;;;;;;;12.95;8.53;;;;;;;-2.45;100.00;98542.30;1768396;80;20120;-69
2022/11/18 04:32:18;;;;;;;11.95;8.75;;;;;;;-2.53;100.00;98548.20;1768218;80;21507;-68
2022/11/18 04:34:44;;;;;;;13.25;9.40;;;;;;;-2.48;100.00;98551.56;1759688;80;21143;-68
2022/11/18 04:37:11;;;;;;;16.50;9.93;;;;;;;-2.44;100.00;98553.27;1758011;80;20990;-69
2022/11/18 04:39:37;;;;;;;;;;;;;;;-2.39;100.00;98562.23;1791780;80;21057;-68
2022/11/18 04:42:04;;;;;;;13.72;8.53;;;;;;;-2.39;100.00;98557.42;1784866;80;20104;-69
2022/11/18 04:44:31;;;;;;;13.85;8.33;;;;;;;-2.42;100.00;98562.67;1751684;80;20955;-68
2022/11/18 04:47:00;;;;;;;14.15;8.80;;;;;;;-2.41;100.00;98572.83;1774356;80;21607;-68
2022/11/18 04:49:27;;;;;;;12.15;8.23;;;;;;;-2.44;100.00;98573.27;1767337;80;21651;-69
2022/11/18 04:51:54;;;;;;;;;;;;;;;-2.43;100.00;98577.53;1795225;80;21054;-68
2022/11/18 04:54:21;;;;;;;13.70;8.53;;;;;;;-2.48;100.00;98570.21;1764596;80;20128;-68
2022/11/18 04:56:47;;;;;;;12.18;8.73;;;;;;;-2.57;100.00;98572.83;1790476;80;21031;-68
2022/11/18 04:59:16;;;;;;;11.70;7.65;;;;;;;-2.60;100.00;98574.59;1763647;79;21464;-68
2022/11/18 05:01:43;;;;;;;12.98;9.20;;;;;;;-2.57;100.00;98576.31;1758051;80;21362;-69
2022/11/18 05:04:17;;;;;;;13.93;9.35;;;;;;;-2.58;100.00;98576.00;1766510;80;21046;-68
2022/11/18 05:06:43;;;;;;;13.22;8.93;;;;;;;-2.56;100.00;98581.13;1759681;80;21105;-68
2022/11/18 05:09:10;;;;;;;13.95;10.03;;;;;;;-2.52;100.00;98574.34;1757851;80;21548;-68
2022/11/18 05:14:26;;;;;;;13.75;9.35;;;;;;;-2.40;100.00;98574.44;1757524;80;21164;-68
2022/11/18 05:16:53;;;;;;;13.15;9.13;;;;;;;-2.35;100.00;98571.95;1771208;80;21045;-69
2022/11/18 05:19:21;;;;;;;14.45;9.60;;;;;;;-2.36;100.00;98569.80;1780225;80;20987;-68
2022/11/18 05:21:47;;;;;;;13.28;8.88;;;;;;;-2.35;100.00;98571.95;1702444;83;21676;-68
2022/11/18 05:24:15;;;;;;;14.23;8.98;;;;;;;-2.36;100.00;98574.30;1706335;82;21090;-68
2022/11/18 05:26:41;;;;;;;;;;;;;;;-2.36;100.00;98576.45;1713744;83;21377;-67
2022/11/18 05:29:07;;;;;;;13.83;9.23;;;;;;;-2.38;100.00;98570.54;1720779;83;20400;-67
2022/11/18 05:31:35;;;;;;;14.85;10.00;;;;;;;-2.42;100.00;98570.67;1716670;83;21033;-67
2022/11/18 05:34:01;;;;;;;12.65;9.28;;;;;;;-2.42;100.00;98575.18;1707315;83;21447;-67
2022/11/18 05:36:28;;;;;;;13.68;8.98;;;;;;;-2.45;100.00;98567.11;1711975;83;21490;-67
2022/11/18 05:38:58;;;;;;;14.05;9.40;;;;;;;-2.46;100.00;98568.64;1764748;80;21055;-67
2022/11/18 05:44:09;;;;;;;14.55;9.50;;;;;;;-2.52;100.00;98581.00;1712368;81;21378;-67
2022/11/18 05:46:36;;;;;;;12.37;8.65;;;;;;;-2.57;100.00;98585.63;1698697;82;20992;-67
2022/11/18 05:49:02;;;;;;;13.53;8.50;;;;;;;-2.57;100.00;98594.95;1697239;83;22082;-66
2022/11/18 05:51:29;;;;;;;12.73;9.08;;;;;;;-2.59;100.00;98605.03;1706410;82;21152;-66
2022/11/18 05:53:56;;;;;;;14.65;9.95;;;;;;;-2.60;100.00;98603.39;1726588;81;21072;-68
2022/11/18 05:56:37;;;;;;;14.87;9.73;;;;;;;-2.58;100.00;98589.33;1731108;81;21017;-66
2022/11/18 05:59:04;;;;;;;15.15;9.53;;;;;;;-2.58;100.00;98591.16;1739149;81;21082;-67
2022/11/18 06:02:00;;;;;;;16.20;12.00;;;;;;;-2.59;100.00;98597.03;1733818;80;21603;-67
2022/11/18 06:04:40;;;;;;;15.15;10.30;;;;;;;-2.64;100.00;98610.17;1708874;81;21071;-66
2022/11/18 06:07:14;;;;;;;15.20;10.00;;;;;;;-2.65;100.00;98618.37;1707993;81;21432;-65
2022/11/18 06:09:43;;;;;;;17.23;10.28;;;;;;;-2.63;100.00;98614.48;1719122;83;21114;-65
2022/11/18 06:12:14;;;;;;;15.80;10.03;;;;;;;-2.60;100.00;98622.04;1703476;82;21124;-66
2022/11/18 06:14:45;;;;;;;14.07;9.68;;;;;;;-2.54;100.00;98621.69;1701948;82;21011;-68
2022/11/18 06:17:19;;;;;;;15.25;9.88;;;;;;;-2.49;100.00;98624.53;1692834;83;21621;-68
2022/11/18 06:19:46;;;;;;;15.88;10.55;;;;;;;-2.46;100.00;98617.44;1734078;81;21477;-68
2022/11/18 06:22:12;;;;;;;17.48;10.82;;;;;;;-2.41;100.00;98621.62;1715937;83;21086;-68
2022/11/18 06:24:38;;;;;;;17.02;10.82;;;;;;;-2.34;100.00;98623.72;1710065;83;21024;-68
2022/11/18 06:27:05;;;;;;;17.67;10.50;;;;;;;-2.26;100.00;98632.77;1713265;82;21037;-68
2022/11/18 06:29:31;;;;;;;17.02;10.15;;;;;;;-2.25;100.00;98629.08;1704387;83;21559;-68
2022/11/18 06:31:57;;;;;;;14.87;10.30;;;;;;;-2.21;100.00;98624.13;1704163;83;21074;-68
2022/11/18 06:34:24;;;;;;;19.80;14.55;;;;;;;-2.13;100.00;98623.87;1714834;83;21012;-68
2022/11/18 06:36:50;;;;;;;17.25;12.47;;;;;;;-2.08;100.00;98630.68;1720522;82;21553;-67
2022/11/18 06:39:18;;;;;;;15.93;10.23;;;;;;;-2.04;100.00;98629.21;1724041;83;21133;-65
2022/11/18 06:41:44;;;;;;;15.43;10.20;;;;;;;-2.01;100.00;98632.77;1717378;82;21040;-66
2022/11/18 06:44:11;;;;;;;14.18;10.78;;;;;;;-2.01;100.00;98638.92;1726018;82;21771;-65
2022/11/18 06:46:56;;;;;;;14.87;10.65;;;;;;;-2.04;100.00;98645.21;1731030;82;21065;-65
2022/11/18 06:49:25;;;;;;;16.12;10.78;;;;;;;-2.08;100.00;98652.02;1721793;82;21050;-68
2022/11/18 06:51:53;;;;;;;17.52;10.72;;;;;;;-2.07;100.00;98649.14;1700251;82;21564;-67
2022/11/18 06:54:20;;;;;;;17.70;11.50;;;;;;;-2.08;100.00;98646.67;1710792;82;21403;-67
2022/11/18 06:56:46;;;;;;;;;;;;;;;-2.08;100.00;98637.34;1734493;81;21101;-67
2022/11/18 06:59:13;;;;;;;24.00;14.93;;;;;;;-2.04;100.00;98639.88;1695662;83;20144;-67
2022/11/18 07:01:41;;;;;;;45.33;26.50;;;;;;;-2.02;100.00;98647.95;1711484;83;21651;-68
2022/11/18 07:04:08;;;;;;;19.17;12.80;;;;;;;-1.96;100.00;98648.95;1707197;83;21161;-67
2022/11/18 07:06:36;;;;;;;17.30;11.80;;;;;;;-1.90;100.00;98656.08;1734208;81;21120;-67
2022/11/18 07:09:05;;;;;;;17.32;10.75;;;;;;;-1.87;100.00;98656.14;1733442;82;21089;-67
2022/11/18 07:11:32;;;;;;;17.65;10.30;;;;;;;-1.92;100.00;98659.48;1744265;80;21027;-68
2022/11/18 07:13:59;;;;;;;16.87;10.72;;;;;;;-1.92;100.00;98670.67;1726864;81;21798;-67
2022/11/18 07:16:25;;;;;;;16.10;11.65;;;;;;;-1.93;100.00;98663.70;1724595;81;21027;-67
2022/11/18 07:18:53;;;;;;;14.90;10.72;;;;;;;-1.95;100.00;98660.44;1747221;81;21073;-69
2022/11/18 07:21:26;;;;;;;19.00;11.38;;;;;;;-1.95;100.00;98669.78;1750875;81;21011;-68
2022/11/18 07:23:52;;;;;;;15.60;10.25;;;;;;;-1.96;100.00;98670.80;1723648;80;21071;-68
2022/11/18 07:26:19;;;;;;;15.72;10.78;;;;;;;-1.97;100.00;98673.98;1715093;82;21581;-68
2022/11/18 07:28:46;;;;;;;15.95;10.82;;;;;;;-2.01;100.00;98675.45;1732756;82;21019;-68
2022/11/18 07:31:15;;;;;;;15.90;10.78;;;;;;;-2.03;100.00;98674.86;1721163;82;21019;-66
2022/11/18 07:33:42;;;;;;;17.82;12.07;;;;;;;-2.03;100.00;98680.19;1698072;82;21120;-66
2022/11/18 07:36:13;;;;;;;18.32;12.10;;;;;;;-2.01;100.00;98686.11;1696558;82;21061;-69
2022/11/18 07:38:41;;;;;;;17.05;12.60;;;;;;;-1.96;100.00;98681.47;1715485;82;21061;-69
2022/11/18 07:41:14;;;;;;;18.90;11.63;;;;;;;-1.91;100.00;98689.11;1731147;81;21021;-68
2022/11/18 07:43:40;;;;;;;17.27;11.73;;;;;;;-1.81;100.00;98697.98;1740208;81;21125;-68
2022/11/18 07:46:14;;;;;;;19.62;11.73;;;;;;;-1.72;100.00;98692.14;1724775;81;21704;-68
2022/11/18 07:48:42;;;;;;;26.10;16.35;;;;;;;-1.63;100.00;98689.48;1703163;82;21063;-68
2022/11/18 07:51:10;;;;;;;19.95;12.82;;;;;;;-1.54;100.00;98688.70;1706663;83;21127;-68
2022/11/18 07:53:37;;;;;;;17.48;11.20;;;;;;;-1.45;100.00;98689.25;1720636;81;21145;-68
2022/11/18 07:56:04;;;;;;;19.30;12.05;;;;;;;-1.39;100.00;98686.52;1747708;81;21142;-68
2022/11/18 07:58:31;;;;;;;22.30;13.15;;;;;;;-1.40;100.00;98690.21;1734642;81;21082;-67
2022/11/18 08:00:57;;;;;;;22.32;13.03;;;;;;;-1.42;100.00;98696.30;1715431;83;22016;-68
2022/11/18 08:03:28;;;;;;;17.00;11.70;;;;;;;-1.41;100.00;98701.92;1732075;81;21098;-68
2022/11/18 08:06:01;;;;;;;20.97;13.08;;;;;;;-1.39;100.00;98699.04;1726704;82;21104;-68
2022/11/18 08:08:27;;;;;;;19.05;12.73;;;;;;;-1.46;100.00;98701.78;1742438;80;21647;-68
2022/11/18 08:11:00;;;;;;;20.30;12.37;;;;;;;-1.54;100.00;98701.53;1702789;83;21098;-68
2022/11/18 08:13:26;;;;;;;19.12;12.25;;;;;;;-1.59;100.00;98707.21;1732519;81;21525;-67
2022/11/18 08:15:53;;;;;;;19.00;11.63;;;;;;;-1.56;100.00;98714.81;1709506;83;21548;-67
2022/11/18 08:18:20;;;;;;;;;;;;;;;-1.51;100.00;98719.78;1744313;81;21086;-67
2022/11/18 08:20:46;;;;;;;19.60;12.20;;;;;;;-1.48;100.00;98717.69;1724240;83;20239;-67
2022/11/18 08:23:13;;;;;;;20.72;13.00;;;;;;;-1.49;100.00;98722.24;1699114;82;21090;-68
2022/11/18 08:25:40;;;;;;;19.77;12.33;;;;;;;-1.51;100.00;98722.45;1728102;82;20982;-68
2022/11/18 08:28:07;;;;;;;19.90;12.58;;;;;;;-1.47;100.00;98719.33;1713354;82;21078;-67
2022/11/18 08:30:33;;;;;;;18.82;12.73;;;;;;;-1.43;100.00;98728.55;1711234;83;21070;-68
2022/11/18 08:33:00;;;;;;;19.60;13.50;;;;;;;-1.38;100.00;98734.05;1706854;82;21451;-68
2022/11/18 08:35:27;;;;;;;20.45;12.85;;;;;;;-1.39;100.00;98732.41;1710391;82;22132;-67
2022/11/18 08:37:54;;;;;;;17.65;11.40;;;;;;;-1.45;100.00;98732.75;1719274;82;21106;-68
2022/11/18 08:40:22;;;;;;;16.65;12.18;;;;;;;-1.42;100.00;98731.52;1723810;82;21065;-68
2022/11/18 08:42:49;;;;;;;15.30;11.35;;;;;;;-1.42;100.00;98731.00;1712414;82;21633;-68
2022/11/18 08:45:15;;;;;;;18.35;13.05;;;;;;;-1.40;100.00;98728.09;1709112;82;21044;-68
2022/11/18 08:47:42;;;;;;;19.48;12.90;;;;;;;-1.44;100.00;98734.91;1716359;82;21109;-67
2022/11/18 08:50:09;;;;;;;18.52;11.43;;;;;;;-1.46;100.00;98735.66;1720002;82;21104;-68
2022/11/18 08:52:36;;;;;;;16.73;11.75;;;;;;;-1.43;100.00;98733.88;1717623;82;21655;-68
2022/11/18 08:55:03;;;;;;;19.05;12.53;;;;;;;-1.44;100.00;98733.06;1717672;82;21066;-68
2022/11/18 08:57:30;;;;;;;16.82;11.50;;;;;;;-1.44;100.00;98734.39;1718691;82;21177;-69
2022/11/18 08:59:56;;;;;;;15.80;11.28;;;;;;;-1.42;100.00;98735.01;1687577;82;21066;-68
2022/11/18 09:02:23;;;;;;;15.23;10.72;;;;;;;-1.42;100.00;98742.20;1716186;82;21112;-68
2022/11/18 09:04:51;;;;;;;17.48;11.35;;;;;;;-1.42;100.00;98737.67;1709246;82;21546;-68
2022/11/18 09:07:19;;;;;;;16.90;11.73;;;;;;;-1.44;100.00;98738.40;1711783;84;21539;-67
2022/11/18 09:09:45;;;;;;;16.60;11.90;;;;;;;-1.42;100.00;98740.86;1721520;82;21111;-68
2022/11/18 09:12:14;;;;;;;19.12;11.22;;;;;;;-1.45;100.00;98738.63;1717934;82;22353;-68
2022/11/18 09:14:42;;;;;;;17.57;11.45;;;;;;;-1.43;100.00;98748.05;1711546;82;21549;-67
2022/11/18 09:17:08;;;;;;;19.65;12.15;;;;;;;-1.43;100.00;98745.38;1726081;82;21145;-67
2022/11/18 09:19:36;;;;;;;21.20;12.10;;;;;;;-1.41;100.00;98749.97;1714807;82;20975;-68
2022/11/18 09:22:04;;;;;;;20.82;11.55;;;;;;;-1.37;100.00;98749.02;1740161;81;21340;-68
2022/11/18 09:24:31;;;;;;;22.35;12.15;;;;;;;-1.35;100.00;98750.97;1699308;83;21046;-68
2022/11/18 09:27:03;;;;;;;21.80;12.18;;;;;;;-1.30;100.00;98755.94;1692522;82;21541;-68
2022/11/18 09:29:31;;;;;;;22.55;11.97;;;;;;;-1.32;100.00;98754.52;1706340;83;21071;-68
2022/11/18 09:32:00;;;;;;;24.67;12.37;;;;;;;-1.33;100.00;98755.55;1711250;83;21117;-67
2022/11/18 09:34:26;;;;;;;19.17;11.12;;;;;;;-1.38;100.00;98752.20;1715057;82;21876;-68
2022/11/18 09:36:55;;;;;;;17.87;10.50;;;;;;;-1.42;100.00;98744.87;1702571;82;21066;-68
2022/11/18 09:39:24;;;;;;;24.05;11.55;;;;;;;-1.46;100.00;98739.15;1733049;80;21043;-68
2022/11/18 09:42:08;;;;;;;25.12;11.55;;;;;;;-1.49;100.00;98742.77;1730055;81;21061;-68
2022/11/18 09:45:04;;;;;;;24.72;12.68;;;;;;;-1.46;100.00;98753.83;1693185;82;21075;-68
2022/11/18 09:47:33;;;;;;;25.05;11.60;;;;;;;-1.39;100.00;98749.25;1709152;82;21391;-68
2022/11/18 09:50:11;;;;;;;19.98;11.00;;;;;;;-1.35;100.00;98742.44;1715355;82;21030;-68
2022/11/18 09:52:47;;;;;;;22.13;11.45;;;;;;;-1.33;100.00;98739.02;1725749;82;21113;-68
2022/11/18 09:55:16;;;;;;;25.97;11.65;;;;;;;-1.29;100.00;98738.06;1722036;82;20986;-69
2022/11/18 09:57:49;;;;;;;22.35;12.55;;;;;;;-1.29;100.00;98734.88;1702385;82;21100;-68
2022/11/18 10:00:22;;;;;;;22.58;12.03;;;;;;;-1.31;100.00;98734.81;1705642;83;20982;-68
2022/11/18 10:03:05;;;;;;;20.02;12.70;;;;;;;-1.32;100.00;98728.65;1714406;82;21059;-69
2022/11/18 10:05:40;;;;;;;23.40;11.97;;;;;;;-1.26;100.00;98725.09;1719641;82;21042;-68
2022/11/18 10:08:29;;;;;;;21.35;12.55;;;;;;;-1.17;100.00;98723.75;1713145;82;21021;-68
2022/11/18 10:11:01;;;;;;;19.55;13.25;;;;;;;-1.15;100.00;98740.91;1731581;82;20996;-68
2022/11/18 10:13:51;;;;;;;23.75;13.55;;;;;;;-1.19;100.00;98737.03;1680461;84;21148;-68
2022/11/18 10:16:50;;;;;;;21.50;14.00;;;;;;;-1.21;100.00;98739.12;1729256;81;21049;-68
2022/11/18 10:19:39;;;;;;;22.35;13.60;;;;;;;-1.18;100.00;98726.15;1722658;83;21655;-68
2022/11/18 10:22:31;;;;;;;16.30;12.00;;;;;;;-1.15;100.00;98733.72;1698424;83;21090;-68
2022/11/18 10:25:01;;;;;;;18.05;11.75;;;;;;;-1.12;100.00;98729.77;1714049;81;21082;-68
2022/11/18 10:27:40;;;;;;;18.57;13.45;;;;;;;-1.13;100.00;98734.81;1698571;83;21107;-68
2022/11/18 10:30:24;;;;;;;19.30;12.65;;;;;;;-1.15;100.00;98732.89;1674709;84;21536;-68
2022/11/18 10:33:01;;;;;;;19.12;12.85;;;;;;;-1.14;100.00;98724.67;1702513;82;21117;-68
2022/11/18 10:35:37;;;;;;;16.62;11.25;;;;;;;-1.10;100.00;98725.84;1694624;84;21088;-68
2022/11/18 10:38:16;;;;;;;17.82;12.05;;;;;;;-1.08;100.00;98729.13;1720624;81;21148;-68
2022/11/18 10:40:58;;;;;;;15.38;11.93;;;;;;;-1.08;100.00;98730.45;1716901;83;21540;-69
2022/11/18 10:43:50;;;;;;;19.87;12.50;;;;;;;-1.06;100.00;98723.54;1724633;81;21131;-68
2022/11/18 10:46:31;;;;;;;17.60;12.68;;;;;;;-1.02;100.00;98722.06;1682388;82;21889;-69
2022/11/18 10:49:13;;;;;;;17.10;11.05;;;;;;;-1.06;100.00;98716.34;1710026;83;21079;-69
2022/11/18 10:51:50;;;;;;;19.35;11.75;;;;;;;-1.04;100.00;98716.95;1709381;82;21010;-68
2022/11/18 10:54:21;;;;;;;15.63;10.43;;;;;;;-0.99;100.00;98718.94;1724518;82;21050;-67
2022/11/18 10:56:58;;;;;;;13.93;10.05;;;;;;;-0.99;100.00;98719.48;1723609;82;21056;-68
2022/11/18 10:59:34;;;;;;;15.05;9.23;;;;;;;-0.98;100.00;98721.92;1680376;84;21039;-67
2022/11/18 11:02:33;;;;;;;14.20;9.45;;;;;;;-0.96;100.00;98722.53;1689788;82;21052;-68
2022/11/18 11:05:10;;;;;;;13.13;9.30;;;;;;;-0.93;100.00;98727.42;1730486;81;21260;-68
2022/11/18 11:07:37;;;;;;;15.15;9.40;;;;;;;-1.03;100.00;98734.59;1703312;82;21137;-68
2022/11/18 11:10:13;;;;;;;13.85;9.45;;;;;;;-1.07;100.00;98723.27;1681045;83;21693;-68
2022/11/18 11:13:03;;;;;;;12.47;8.90;;;;;;;-1.14;100.00;98728.68;1717855;82;21810;-66
2022/11/18 11:15:40;;;;;;;16.27;11.22;;;;;;;-1.21;100.00;98727.93;1722414;81;21175;-67
2022/11/18 11:18:41;;;;;;;18.62;12.47;;;;;;;-1.23;100.00;98739.84;1700125;83;21664;-68
2022/11/18 11:21:24;;;;;;;15.40;11.00;;;;;;;-1.21;100.00;98729.27;1698856;82;21094;-67
2022/11/18 11:23:51;;;;;;;15.83;10.15;;;;;;;-1.14;100.00;98746.55;1686269;84;21170;-67
2022/11/18 11:26:49;;;;;;;14.85;10.08;;;;;;;-1.05;100.00;98743.87;1697001;82;21017;-67
2022/11/18 11:29:50;;;;;;;15.60;10.28;;;;;;;-1.05;100.00;98750.55;1710238;82;21152;-67
2022/11/18 11:32:44;;;;;;;15.65;10.38;;;;;;;-1.05;100.00;98760.73;1719743;82;21153;-67
2022/11/18 11:35:21;;;;;;;13.90;9.48;;;;;;;-1.03;100.00;98755.17;1702421;82;21112;-67
2022/11/18 11:38:08;;;;;;;12.15;9.03;;;;;;;-0.99;100.00;98764.36;1715777;83;21691;-69
2022/11/18 11:41:20;;;;;;;14.18;10.18;;;;;;;-0.98;100.00;98781.20;1711701;83;21050;-68
2022/11/18 11:44:03;;;;;;;13.10;9.08;;;;;;;-0.96;100.00;98791.17;1709578;82;21388;-69
2022/11/18 11:49:55;;;;;;;14.05;9.15;;;;;;;-1.04;100.00;98781.06;1712153;82;21493;-68
2022/11/18 11:52:54;;;;;;;16.23;10.30;;;;;;;-1.04;100.00;98778.91;1725201;81;21563;-67
2022/11/18 11:55:48;;;;;;;13.50;9.08;;;;;;;-1.02;100.00;98783.50;1722517;83;21501;-67
2022/11/18 11:58:45;;;;;;;13.55;9.08;;;;;;;-1.01;100.00;98789.15;1710848;83;21061;-68
2022/11/18 12:02:06;;;;;;;17.45;10.00;;;;;;;-1.09;100.00;98793.43;1702175;81;21069;-68
2022/11/18 12:04:48;;;;;;;12.45;8.65;;;;;;;-1.15;100.00;98800.48;1736439;81;21056;-68
2022/11/18 12:07:21;;;;;;;13.25;9.38;;;;;;;-1.17;100.00;98809.21;1702305;83;21148;-67
2022/11/18 12:10:06;;;;;;;14.25;9.78;;;;;;;-1.17;100.00;98819.89;1717925;81;21012;-68
2022/11/18 12:13:19;;;;;;;14.00;9.85;;;;;;;-1.23;100.00;98811.94;1705098;81;21633;-68
2022/11/18 12:16:19;;;;;;;15.75;10.93;;;;;;;-1.27;100.00;98795.55;1688400;82;21112;-68
2022/11/18 12:18:59;;;;;;;16.02;11.12;;;;;;;-1.25;100.00;98793.48;1747917;81;21145;-68
2022/11/18 12:21:51;;;;;;;17.92;10.90;;;;;;;-1.24;100.00;98779.08;1739523;81;21018;-68
2022/11/18 12:24:38;;;;;;;15.88;11.20;;;;;;;-1.18;100.00;98785.41;1745971;81;21101;-68
2022/11/18 12:27:12;;;;;;;17.92;11.55;;;;;;;-1.16;100.00;98776.66;1716070;82;21070;-68
2022/11/18 12:29:57;;;;;;;17.50;11.93;;;;;;;-1.15;100.00;98765.77;1729852;83;21048;-68
2022/11/18 12:32:45;;;;;;;17.17;12.20;;;;;;;-1.14;100.00;98783.95;1732288;81;21158;-68
2022/11/18 12:35:23;;;;;;;16.57;12.28;;;;;;;-1.17;100.00;98799.86;1743374;81;21018;-69